sensor_id;sensor_type;location;lat;lon;timestamp;temperature;humidity
73955;DHT22;62306;52.516;13.290;2023-07-28T00:00:31;17.30;99.90
73955;DHT22;62306;52.516;13.290;2023-07-28T00:03:00;17.30;99.90
73955;DHT22;62306;52.516;13.290;2023-07-28T00:05:27;17.30;99.90
73955;DHT22;62306;52.516;13.290;2023-07-28T00:07:54;17.30;99.90
73955;DHT22;62306;52.516;13.290;2023-07-28T00:10:21;17.30;99.90
73955;DHT22;62306;52.516;13.290;2023-07-28T00:12:48;17.30;99.90
73955;DHT22;62306;52.516;13.290;2023-07-28T00:15:15;17.30;99.90
73955;DHT22;62306;52.516;13.290;2023-07-28T00:17:42;17.30;99.90
73955;DHT22;62306;52.516;13.290;2023-07-28T00:20:11;17.30;99.90
73955;DHT22;62306;52.516;13.290;2023-07-28T00:22:38;17.30;99.90
73955;DHT22;62306;52.516;13.290;2023-07-28T00:25:06;17.30;99.90
73955;DHT22;62306;52.516;13.290;2023-07-28T00:27:33;17.30;99.90
73955;DHT22;62306;52.516;13.290;2023-07-28T00:30:00;17.30;99.90
73955;DHT22;62306;52.516;13.290;2023-07-28T00:32:27;17.40;99.90
73955;DHT22;62306;52.516;13.290;2023-07-28T00:34:54;17.30;99.90
73955;DHT22;62306;52.516;13.290;2023-07-28T00:37:22;17.40;99.90
73955;DHT22;62306;52.516;13.290;2023-07-28T00:39:49;17.30;99.90
73955;DHT22;62306;52.516;13.290;2023-07-28T00:42:16;17.40;99.90
73955;DHT22;62306;52.516;13.290;2023-07-28T00:44:43;17.40;99.90
73955;DHT22;62306;52.516;13.290;2023-07-28T00:47:10;17.40;99.90
73955;DHT22;62306;52.516;13.290;2023-07-28T00:49:39;17.50;99.90
73955;DHT22;62306;52.516;13.290;2023-07-28T00:52:07;17.50;99.90
73955;DHT22;62306;52.516;13.290;2023-07-28T00:54:36;17.60;99.90
73955;DHT22;62306;52.516;13.290;2023-07-28T00:57:03;17.50;99.90
73955;DHT22;62306;52.516;13.290;2023-07-28T00:59:31;17.50;99.90
73955;DHT22;62306;52.516;13.290;2023-07-28T01:01:58;17.50;99.90
73955;DHT22;62306;52.516;13.290;2023-07-28T01:04:25;17.60;99.90
73955;DHT22;62306;52.516;13.290;2023-07-28T01:06:56;17.70;99.90
73955;DHT22;62306;52.516;13.290;2023-07-28T01:09:29;17.60;99.90
73955;DHT22;62306;52.516;13.290;2023-07-28T01:12:01;17.60;99.90
73955;DHT22;62306;52.516;13.290;2023-07-28T01:14:33;17.60;99.90
73955;DHT22;62306;52.516;13.290;2023-07-28T01:17:00;17.70;99.90
73955;DHT22;62306;52.516;13.290;2023-07-28T01:19:27;17.70;99.90
73955;DHT22;62306;52.516;13.290;2023-07-28T01:22:06;17.70;99.90
73955;DHT22;62306;52.516;13.290;2023-07-28T01:24:49;17.70;99.90
73955;DHT22;62306;52.516;13.290;2023-07-28T01:27:19;17.70;99.90
73955;DHT22;62306;52.516;13.290;2023-07-28T01:29:47;17.70;99.90
73955;DHT22;62306;52.516;13.290;2023-07-28T01:32:14;17.80;99.90
73955;DHT22;62306;52.516;13.290;2023-07-28T01:34:41;17.80;99.90
73955;DHT22;62306;52.516;13.290;2023-07-28T01:37:08;17.80;99.90
73955;DHT22;62306;52.516;13.290;2023-07-28T01:39:35;17.70;99.90
73955;DHT22;62306;52.516;13.290;2023-07-28T01:42:02;17.70;99.90
73955;DHT22;62306;52.516;13.290;2023-07-28T01:44:30;17.70;99.90
73955;DHT22;62306;52.516;13.290;2023-07-28T01:46:57;17.60;99.90
73955;DHT22;62306;52.516;13.290;2023-07-28T01:49:24;17.60;99.90
73955;DHT22;62306;52.516;13.290;2023-07-28T01:51:50;17.60;99.90
73955;DHT22;62306;52.516;13.290;2023-07-28T01:54:17;17.60;99.90
73955;DHT22;62306;52.516;13.290;2023-07-28T01:56:44;17.70;99.90
73955;DHT22;62306;52.516;13.290;2023-07-28T01:59:11;17.60;99.90
73955;DHT22;62306;52.516;13.290;2023-07-28T02:01:40;17.70;99.90
73955;DHT22;62306;52.516;13.290;2023-07-28T02:04:07;17.60;99.90
73955;DHT22;62306;52.516;13.290;2023-07-28T02:06:33;17.70;99.90
73955;DHT22;62306;52.516;13.290;2023-07-28T02:09:00;17.70;99.90
73955;DHT22;62306;52.516;13.290;2023-07-28T02:11:27;17.80;99.90
73955;DHT22;62306;52.516;13.290;2023-07-28T02:13:54;17.80;99.90
73955;DHT22;62306;52.516;13.290;2023-07-28T02:16:21;17.80;99.90
73955;DHT22;62306;52.516;13.290;2023-07-28T02:18:49;17.90;99.90
73955;DHT22;62306;52.516;13.290;2023-07-28T02:21:16;17.90;99.90
73955;DHT22;62306;52.516;13.290;2023-07-28T02:23:42;17.90;99.90
73955;DHT22;62306;52.516;13.290;2023-07-28T02:26:09;17.90;99.90
73955;DHT22;62306;52.516;13.290;2023-07-28T02:28:36;17.90;99.90
73955;DHT22;62306;52.516;13.290;2023-07-28T02:31:03;17.90;99.90
73955;DHT22;62306;52.516;13.290;2023-07-28T02:33:29;17.80;99.90
73955;DHT22;62306;52.516;13.290;2023-07-28T02:36:02;17.80;99.90
73955;DHT22;62306;52.516;13.290;2023-07-28T02:38:29;17.80;99.90
73955;DHT22;62306;52.516;13.290;2023-07-28T02:40:55;17.80;99.90
73955;DHT22;62306;52.516;13.290;2023-07-28T02:43:22;17.80;99.90
73955;DHT22;62306;52.516;13.290;2023-07-28T02:45:53;17.80;99.90
73955;DHT22;62306;52.516;13.290;2023-07-28T02:48:20;17.80;99.90
73955;DHT22;62306;52.516;13.290;2023-07-28T02:50:49;17.80;99.90
73955;DHT22;62306;52.516;13.290;2023-07-28T02:53:18;17.90;99.90
73955;DHT22;62306;52.516;13.290;2023-07-28T02:55:46;17.90;99.90
73955;DHT22;62306;52.516;13.290;2023-07-28T02:58:14;17.90;99.90
73955;DHT22;62306;52.516;13.290;2023-07-28T03:00:41;17.90;99.90
73955;DHT22;62306;52.516;13.290;2023-07-28T03:03:10;18.00;99.90
73955;DHT22;62306;52.516;13.290;2023-07-28T03:05:37;17.90;99.90
73955;DHT22;62306;52.516;13.290;2023-07-28T03:08:05;18.00;99.90
73955;DHT22;62306;52.516;13.290;2023-07-28T03:10:33;17.90;99.90
73955;DHT22;62306;52.516;13.290;2023-07-28T03:13:00;17.90;99.90
73955;DHT22;62306;52.516;13.290;2023-07-28T03:15:27;18.00;99.90
73955;DHT22;62306;52.516;13.290;2023-07-28T03:17:53;18.00;99.90
73955;DHT22;62306;52.516;13.290;2023-07-28T03:20:21;17.90;99.90
73955;DHT22;62306;52.516;13.290;2023-07-28T03:22:47;18.00;99.90
73955;DHT22;62306;52.516;13.290;2023-07-28T03:25:14;17.90;99.90
73955;DHT22;62306;52.516;13.290;2023-07-28T03:27:42;18.00;99.90
73955;DHT22;62306;52.516;13.290;2023-07-28T03:30:09;18.00;99.90
73955;DHT22;62306;52.516;13.290;2023-07-28T03:32:36;18.00;99.90
73955;DHT22;62306;52.516;13.290;2023-07-28T03:35:04;18.00;99.90
73955;DHT22;62306;52.516;13.290;2023-07-28T03:37:31;18.00;99.90
73955;DHT22;62306;52.516;13.290;2023-07-28T03:39:58;18.00;99.90
73955;DHT22;62306;52.516;13.290;2023-07-28T03:42:25;18.00;99.90
73955;DHT22;62306;52.516;13.290;2023-07-28T03:44:54;18.00;99.90
73955;DHT22;62306;52.516;13.290;2023-07-28T03:47:21;18.00;99.90
73955;DHT22;62306;52.516;13.290;2023-07-28T03:49:47;18.00;99.90
73955;DHT22;62306;52.516;13.290;2023-07-28T03:52:14;17.90;99.90
73955;DHT22;62306;52.516;13.290;2023-07-28T03:54:41;18.00;99.90
73955;DHT22;62306;52.516;13.290;2023-07-28T03:57:09;18.00;99.90
73955;DHT22;62306;52.516;13.290;2023-07-28T03:59:36;18.00;99.90
73955;DHT22;62306;52.516;13.290;2023-07-28T04:02:04;18.00;99.90
73955;DHT22;62306;52.516;13.290;2023-07-28T04:04:31;18.00;99.90
73955;DHT22;62306;52.516;13.290;2023-07-28T04:06:58;18.10;99.90
73955;DHT22;62306;52.516;13.290;2023-07-28T04:09:25;18.10;99.90
73955;DHT22;62306;52.516;13.290;2023-07-28T04:11:52;18.10;99.90
73955;DHT22;62306;52.516;13.290;2023-07-28T04:14:18;18.10;99.90
73955;DHT22;62306;52.516;13.290;2023-07-28T04:16:45;18.10;99.90
73955;DHT22;62306;52.516;13.290;2023-07-28T04:19:13;18.10;99.90
73955;DHT22;62306;52.516;13.290;2023-07-28T04:21:41;18.10;99.90
73955;DHT22;62306;52.516;13.290;2023-07-28T04:24:08;18.20;99.90
73955;DHT22;62306;52.516;13.290;2023-07-28T04:26:35;18.20;99.90
73955;DHT22;62306;52.516;13.290;2023-07-28T04:29:02;18.20;99.90
73955;DHT22;62306;52.516;13.290;2023-07-28T04:31:29;18.20;99.90
73955;DHT22;62306;52.516;13.290;2023-07-28T04:33:55;18.30;99.90
73955;DHT22;62306;52.516;13.290;2023-07-28T04:36:23;18.50;99.90
73955;DHT22;62306;52.516;13.290;2023-07-28T04:38:50;18.50;99.90
73955;DHT22;62306;52.516;13.290;2023-07-28T04:41:17;18.50;99.90
73955;DHT22;62306;52.516;13.290;2023-07-28T04:43:44;18.50;99.90
73955;DHT22;62306;52.516;13.290;2023-07-28T04:46:10;18.50;99.90
73955;DHT22;62306;52.516;13.290;2023-07-28T04:48:37;18.50;99.90
73955;DHT22;62306;52.516;13.290;2023-07-28T04:51:04;18.40;99.90
73955;DHT22;62306;52.516;13.290;2023-07-28T04:53:32;18.30;99.90
73955;DHT22;62306;52.516;13.290;2023-07-28T04:55:59;18.30;99.90
73955;DHT22;62306;52.516;13.290;2023-07-28T04:58:26;18.40;99.90
73955;DHT22;62306;52.516;13.290;2023-07-28T05:00:53;18.40;99.90
73955;DHT22;62306;52.516;13.290;2023-07-28T05:03:20;18.40;99.90
73955;DHT22;62306;52.516;13.290;2023-07-28T05:05:47;18.50;99.90
73955;DHT22;62306;52.516;13.290;2023-07-28T05:08:14;18.50;99.90
73955;DHT22;62306;52.516;13.290;2023-07-28T05:10:42;18.50;99.90
73955;DHT22;62306;52.516;13.290;2023-07-28T05:13:09;18.50;99.90
73955;DHT22;62306;52.516;13.290;2023-07-28T05:15:36;18.60;99.90
73955;DHT22;62306;52.516;13.290;2023-07-28T05:18:02;18.60;99.90
73955;DHT22;62306;52.516;13.290;2023-07-28T05:20:29;18.60;99.90
73955;DHT22;62306;52.516;13.290;2023-07-28T05:22:56;18.60;99.90
73955;DHT22;62306;52.516;13.290;2023-07-28T05:25:23;18.70;99.90
73955;DHT22;62306;52.516;13.290;2023-07-28T05:27:51;18.70;99.90
73955;DHT22;62306;52.516;13.290;2023-07-28T05:30:18;18.70;99.90
73955;DHT22;62306;52.516;13.290;2023-07-28T05:32:46;18.80;99.90
73955;DHT22;62306;52.516;13.290;2023-07-28T05:35:14;18.80;99.90
73955;DHT22;62306;52.516;13.290;2023-07-28T05:37:41;18.80;99.90
73955;DHT22;62306;52.516;13.290;2023-07-28T05:40:09;18.70;99.90
73955;DHT22;62306;52.516;13.290;2023-07-28T05:42:36;18.80;99.90
73955;DHT22;62306;52.516;13.290;2023-07-28T05:45:05;18.80;99.90
73955;DHT22;62306;52.516;13.290;2023-07-28T05:47:32;18.80;99.90
73955;DHT22;62306;52.516;13.290;2023-07-28T05:49:59;18.80;99.90
73955;DHT22;62306;52.516;13.290;2023-07-28T05:52:26;18.80;99.90
73955;DHT22;62306;52.516;13.290;2023-07-28T05:54:53;18.80;99.90
73955;DHT22;62306;52.516;13.290;2023-07-28T05:57:20;18.70;99.90
73955;DHT22;62306;52.516;13.290;2023-07-28T05:59:46;18.80;99.90
73955;DHT22;62306;52.516;13.290;2023-07-28T06:02:15;18.80;99.90
73955;DHT22;62306;52.516;13.290;2023-07-28T06:04:42;18.80;99.90
73955;DHT22;62306;52.516;13.290;2023-07-28T06:07:09;18.80;99.90
73955;DHT22;62306;52.516;13.290;2023-07-28T06:09:36;18.70;99.90
73955;DHT22;62306;52.516;13.290;2023-07-28T06:12:04;18.60;99.90
73955;DHT22;62306;52.516;13.290;2023-07-28T06:14:31;18.50;99.90
73955;DHT22;62306;52.516;13.290;2023-07-28T06:16:58;18.50;99.90
73955;DHT22;62306;52.516;13.290;2023-07-28T06:19:26;18.50;99.90
73955;DHT22;62306;52.516;13.290;2023-07-28T06:21:53;18.50;99.90
73955;DHT22;62306;52.516;13.290;2023-07-28T06:24:20;18.60;99.90
73955;DHT22;62306;52.516;13.290;2023-07-28T06:26:47;18.60;99.90
73955;DHT22;62306;52.516;13.290;2023-07-28T06:29:13;18.60;99.90
73955;DHT22;62306;52.516;13.290;2023-07-28T06:31:41;18.70;99.90
73955;DHT22;62306;52.516;13.290;2023-07-28T06:34:07;18.80;99.90
73955;DHT22;62306;52.516;13.290;2023-07-28T06:36:35;18.80;99.90
73955;DHT22;62306;52.516;13.290;2023-07-28T06:39:02;19.00;99.90
73955;DHT22;62306;52.516;13.290;2023-07-28T06:41:30;19.10;99.90
73955;DHT22;62306;52.516;13.290;2023-07-28T06:43:56;19.10;99.90
73955;DHT22;62306;52.516;13.290;2023-07-28T06:46:23;19.20;99.90
73955;DHT22;62306;52.516;13.290;2023-07-28T06:48:50;19.10;99.90
73955;DHT22;62306;52.516;13.290;2023-07-28T06:51:17;19.10;99.90
73955;DHT22;62306;52.516;13.290;2023-07-28T06:53:46;19.20;99.90
73955;DHT22;62306;52.516;13.290;2023-07-28T06:56:13;19.30;99.90
73955;DHT22;62306;52.516;13.290;2023-07-28T06:58:39;19.70;99.90
73955;DHT22;62306;52.516;13.290;2023-07-28T07:01:06;19.90;99.90
73955;DHT22;62306;52.516;13.290;2023-07-28T07:03:36;20.20;99.90
73955;DHT22;62306;52.516;13.290;2023-07-28T07:06:03;20.20;99.90
73955;DHT22;62306;52.516;13.290;2023-07-28T07:08:29;20.20;99.90
73955;DHT22;62306;52.516;13.290;2023-07-28T07:10:57;20.30;99.90
73955;DHT22;62306;52.516;13.290;2023-07-28T07:13:25;20.40;99.90
73955;DHT22;62306;52.516;13.290;2023-07-28T07:15:51;20.40;99.90
73955;DHT22;62306;52.516;13.290;2023-07-28T07:18:18;20.40;99.90
73955;DHT22;62306;52.516;13.290;2023-07-28T07:20:45;20.40;99.90
73955;DHT22;62306;52.516;13.290;2023-07-28T07:23:12;20.40;99.90
73955;DHT22;62306;52.516;13.290;2023-07-28T07:25:40;20.50;99.90
73955;DHT22;62306;52.516;13.290;2023-07-28T07:28:08;20.70;99.90
73955;DHT22;62306;52.516;13.290;2023-07-28T07:30:35;20.80;99.90
73955;DHT22;62306;52.516;13.290;2023-07-28T07:33:02;20.90;99.90
73955;DHT22;62306;52.516;13.290;2023-07-28T07:35:28;21.00;99.90
73955;DHT22;62306;52.516;13.290;2023-07-28T07:37:55;21.20;99.90
73955;DHT22;62306;52.516;13.290;2023-07-28T07:40:22;21.40;99.90
73955;DHT22;62306;52.516;13.290;2023-07-28T07:42:49;21.50;99.90
73955;DHT22;62306;52.516;13.290;2023-07-28T07:45:18;21.50;99.90
73955;DHT22;62306;52.516;13.290;2023-07-28T07:47:45;21.80;99.90
73955;DHT22;62306;52.516;13.290;2023-07-28T07:50:12;22.10;99.90
73955;DHT22;62306;52.516;13.290;2023-07-28T07:52:42;22.10;99.90
73955;DHT22;62306;52.516;13.290;2023-07-28T07:55:10;22.00;99.90
73955;DHT22;62306;52.516;13.290;2023-07-28T07:57:37;22.10;99.90
73955;DHT22;62306;52.516;13.290;2023-07-28T08:00:06;22.40;99.90
73955;DHT22;62306;52.516;13.290;2023-07-28T08:02:34;22.90;99.90
73955;DHT22;62306;52.516;13.290;2023-07-28T08:05:01;23.40;99.90
73955;DHT22;62306;52.516;13.290;2023-07-28T08:07:29;24.00;99.90
73955;DHT22;62306;52.516;13.290;2023-07-28T08:09:56;24.60;99.90
73955;DHT22;62306;52.516;13.290;2023-07-28T08:12:22;25.00;99.90
73955;DHT22;62306;52.516;13.290;2023-07-28T08:14:50;25.30;99.90
73955;DHT22;62306;52.516;13.290;2023-07-28T08:17:16;25.20;99.90
73955;DHT22;62306;52.516;13.290;2023-07-28T08:19:45;25.20;99.90
73955;DHT22;62306;52.516;13.290;2023-07-28T08:22:11;24.90;99.90
73955;DHT22;62306;52.516;13.290;2023-07-28T08:24:38;24.50;99.90
73955;DHT22;62306;52.516;13.290;2023-07-28T08:27:06;23.80;99.90
73955;DHT22;62306;52.516;13.290;2023-07-28T08:29:32;23.20;99.90
73955;DHT22;62306;52.516;13.290;2023-07-28T08:31:59;22.80;99.90
73955;DHT22;62306;52.516;13.290;2023-07-28T08:34:26;22.70;99.90
73955;DHT22;62306;52.516;13.290;2023-07-28T08:36:54;22.50;99.90
73955;DHT22;62306;52.516;13.290;2023-07-28T08:39:21;22.40;99.90
73955;DHT22;62306;52.516;13.290;2023-07-28T08:41:57;22.40;99.90
73955;DHT22;62306;52.516;13.290;2023-07-28T08:44:24;22.40;99.90
73955;DHT22;62306;52.516;13.290;2023-07-28T08:46:52;22.50;99.90
73955;DHT22;62306;52.516;13.290;2023-07-28T08:49:19;22.70;99.90
73955;DHT22;62306;52.516;13.290;2023-07-28T08:51:49;22.90;99.90
73955;DHT22;62306;52.516;13.290;2023-07-28T08:54:17;23.00;99.90
73955;DHT22;62306;52.516;13.290;2023-07-28T08:56:44;23.00;99.90
73955;DHT22;62306;52.516;13.290;2023-07-28T08:59:11;22.90;99.90
73955;DHT22;62306;52.516;13.290;2023-07-28T09:01:39;22.80;99.90
73955;DHT22;62306;52.516;13.290;2023-07-28T09:04:09;22.90;99.90
73955;DHT22;62306;52.516;13.290;2023-07-28T09:06:37;22.80;99.90
73955;DHT22;62306;52.516;13.290;2023-07-28T09:09:06;22.90;99.90
73955;DHT22;62306;52.516;13.290;2023-07-28T09:11:43;22.60;99.90
73955;DHT22;62306;52.516;13.290;2023-07-28T09:14:12;22.40;99.90
73955;DHT22;62306;52.516;13.290;2023-07-28T09:16:39;22.30;99.90
73955;DHT22;62306;52.516;13.290;2023-07-28T09:19:06;22.10;99.90
73955;DHT22;62306;52.516;13.290;2023-07-28T09:21:33;21.90;99.90
73955;DHT22;62306;52.516;13.290;2023-07-28T09:24:02;22.10;99.90
73955;DHT22;62306;52.516;13.290;2023-07-28T09:26:38;22.60;99.90
73955;DHT22;62306;52.516;13.290;2023-07-28T09:29:15;23.00;99.90
73955;DHT22;62306;52.516;13.290;2023-07-28T09:31:43;23.40;99.90
73955;DHT22;62306;52.516;13.290;2023-07-28T09:34:11;23.60;99.90
73955;DHT22;62306;52.516;13.290;2023-07-28T09:36:39;23.80;99.90
73955;DHT22;62306;52.516;13.290;2023-07-28T09:39:06;24.10;99.90
73955;DHT22;62306;52.516;13.290;2023-07-28T09:41:35;24.20;99.90
73955;DHT22;62306;52.516;13.290;2023-07-28T09:44:05;24.30;99.90
73955;DHT22;62306;52.516;13.290;2023-07-28T09:46:34;24.40;99.90
73955;DHT22;62306;52.516;13.290;2023-07-28T09:49:04;24.20;99.90
73955;DHT22;62306;52.516;13.290;2023-07-28T09:51:31;24.10;99.90
73955;DHT22;62306;52.516;13.290;2023-07-28T09:54:05;23.80;99.90
73955;DHT22;62306;52.516;13.290;2023-07-28T09:56:32;23.50;99.90
73955;DHT22;62306;52.516;13.290;2023-07-28T09:59:01;23.20;99.90
73955;DHT22;62306;52.516;13.290;2023-07-28T10:01:32;22.80;99.90
73955;DHT22;62306;52.516;13.290;2023-07-28T10:03:59;22.60;99.90
73955;DHT22;62306;52.516;13.290;2023-07-28T10:06:27;22.70;99.90
73955;DHT22;62306;52.516;13.290;2023-07-28T10:08:55;22.70;99.90
73955;DHT22;62306;52.516;13.290;2023-07-28T10:11:23;23.00;99.90
73955;DHT22;62306;52.516;13.290;2023-07-28T10:13:51;23.30;99.90
73955;DHT22;62306;52.516;13.290;2023-07-28T10:16:18;23.60;99.90
73955;DHT22;62306;52.516;13.290;2023-07-28T10:18:53;24.00;99.90
73955;DHT22;62306;52.516;13.290;2023-07-28T10:21:21;24.00;99.90
73955;DHT22;62306;52.516;13.290;2023-07-28T10:23:54;23.90;99.90
73955;DHT22;62306;52.516;13.290;2023-07-28T10:26:31;23.60;99.90
73955;DHT22;62306;52.516;13.290;2023-07-28T10:29:08;23.10;99.90
73955;DHT22;62306;52.516;13.290;2023-07-28T10:31:36;22.70;99.90
73955;DHT22;62306;52.516;13.290;2023-07-28T10:34:04;22.30;99.90
73955;DHT22;62306;52.516;13.290;2023-07-28T10:36:34;22.10;99.90
73955;DHT22;62306;52.516;13.290;2023-07-28T10:39:12;22.10;99.90
73955;DHT22;62306;52.516;13.290;2023-07-28T10:41:40;22.30;99.90
73955;DHT22;62306;52.516;13.290;2023-07-28T10:44:26;22.70;99.90
73955;DHT22;62306;52.516;13.290;2023-07-28T10:46:53;23.10;99.90
73955;DHT22;62306;52.516;13.290;2023-07-28T10:49:22;23.00;99.90
73955;DHT22;62306;52.516;13.290;2023-07-28T10:51:50;22.80;99.90
73955;DHT22;62306;52.516;13.290;2023-07-28T10:54:17;22.60;99.90
73955;DHT22;62306;52.516;13.290;2023-07-28T10:56:45;22.30;99.90
73955;DHT22;62306;52.516;13.290;2023-07-28T10:59:12;22.10;99.90
73955;DHT22;62306;52.516;13.290;2023-07-28T11:01:41;21.80;99.90
73955;DHT22;62306;52.516;13.290;2023-07-28T11:04:12;21.60;99.90
73955;DHT22;62306;52.516;13.290;2023-07-28T11:06:42;21.50;99.90
73955;DHT22;62306;52.516;13.290;2023-07-28T11:09:10;21.40;99.90
73955;DHT22;62306;52.516;13.290;2023-07-28T11:11:38;21.30;99.90
73955;DHT22;62306;52.516;13.290;2023-07-28T11:14:06;21.10;99.90
73955;DHT22;62306;52.516;13.290;2023-07-28T11:16:35;21.10;99.90
73955;DHT22;62306;52.516;13.290;2023-07-28T11:19:02;20.90;99.90
73955;DHT22;62306;52.516;13.290;2023-07-28T11:21:30;20.60;99.90
73955;DHT22;62306;52.516;13.290;2023-07-28T11:23:58;20.30;99.90
73955;DHT22;62306;52.516;13.290;2023-07-28T11:26:25;20.10;99.90
73955;DHT22;62306;52.516;13.290;2023-07-28T11:28:53;20.00;99.90
73955;DHT22;62306;52.516;13.290;2023-07-28T11:31:23;20.00;99.90
73955;DHT22;62306;52.516;13.290;2023-07-28T11:33:52;19.90;99.90
73955;DHT22;62306;52.516;13.290;2023-07-28T11:36:23;20.00;99.90
73955;DHT22;62306;52.516;13.290;2023-07-28T11:38:50;20.20;99.90
73955;DHT22;62306;52.516;13.290;2023-07-28T11:41:19;20.40;99.90
73955;DHT22;62306;52.516;13.290;2023-07-28T11:43:47;20.40;99.90
73955;DHT22;62306;52.516;13.290;2023-07-28T11:46:33;20.50;99.90
73955;DHT22;62306;52.516;13.290;2023-07-28T11:49:09;20.70;99.90
73955;DHT22;62306;52.516;13.290;2023-07-28T11:51:39;21.00;99.90
73955;DHT22;62306;52.516;13.290;2023-07-28T11:54:11;21.10;99.90
73955;DHT22;62306;52.516;13.290;2023-07-28T11:56:41;21.30;99.90
73955;DHT22;62306;52.516;13.290;2023-07-28T11:59:08;21.40;99.90
73955;DHT22;62306;52.516;13.290;2023-07-28T12:01:49;21.50;99.90
73955;DHT22;62306;52.516;13.290;2023-07-28T12:04:21;21.70;99.90
73955;DHT22;62306;52.516;13.290;2023-07-28T12:07:02;21.80;99.90
73955;DHT22;62306;52.516;13.290;2023-07-28T12:09:30;22.00;99.90
73955;DHT22;62306;52.516;13.290;2023-07-28T12:11:59;22.30;99.90
73955;DHT22;62306;52.516;13.290;2023-07-28T12:14:35;22.50;99.90
73955;DHT22;62306;52.516;13.290;2023-07-28T12:17:02;22.50;99.90
73955;DHT22;62306;52.516;13.290;2023-07-28T12:19:29;22.30;99.90
73955;DHT22;62306;52.516;13.290;2023-07-28T12:21:56;22.10;99.90
73955;DHT22;62306;52.516;13.290;2023-07-28T12:24:23;22.00;99.90
73955;DHT22;62306;52.516;13.290;2023-07-28T12:26:50;21.90;99.90
73955;DHT22;62306;52.516;13.290;2023-07-28T12:29:19;21.90;99.90
73955;DHT22;62306;52.516;13.290;2023-07-28T12:31:45;21.80;99.90
73955;DHT22;62306;52.516;13.290;2023-07-28T12:34:12;21.90;99.90
73955;DHT22;62306;52.516;13.290;2023-07-28T12:36:39;22.00;99.90
73955;DHT22;62306;52.516;13.290;2023-07-28T12:39:06;22.10;99.90
73955;DHT22;62306;52.516;13.290;2023-07-28T12:41:33;22.20;99.90
73955;DHT22;62306;52.516;13.290;2023-07-28T12:44:00;22.20;99.90
73955;DHT22;62306;52.516;13.290;2023-07-28T12:46:28;22.20;99.90
73955;DHT22;62306;52.516;13.290;2023-07-28T12:48:55;22.50;99.90
73955;DHT22;62306;52.516;13.290;2023-07-28T12:51:22;22.90;99.90
73955;DHT22;62306;52.516;13.290;2023-07-28T12:53:49;23.50;99.90
73955;DHT22;62306;52.516;13.290;2023-07-28T12:56:16;23.80;99.90
73955;DHT22;62306;52.516;13.290;2023-07-28T12:58:42;23.90;99.90
73955;DHT22;62306;52.516;13.290;2023-07-28T13:01:09;23.90;99.90
73955;DHT22;62306;52.516;13.290;2023-07-28T13:03:38;23.80;99.90
73955;DHT22;62306;52.516;13.290;2023-07-28T13:06:05;23.80;99.90
73955;DHT22;62306;52.516;13.290;2023-07-28T13:08:32;23.60;99.90
73955;DHT22;62306;52.516;13.290;2023-07-28T13:10:59;23.80;99.90
73955;DHT22;62306;52.516;13.290;2023-07-28T13:13:26;23.80;99.90
73955;DHT22;62306;52.516;13.290;2023-07-28T13:15:55;23.80;99.90
73955;DHT22;62306;52.516;13.290;2023-07-28T13:18:23;23.60;99.90
73955;DHT22;62306;52.516;13.290;2023-07-28T13:20:51;23.50;99.90
73955;DHT22;62306;52.516;13.290;2023-07-28T13:23:18;23.40;99.90
73955;DHT22;62306;52.516;13.290;2023-07-28T13:25:45;23.30;99.90
73955;DHT22;62306;52.516;13.290;2023-07-28T13:28:12;23.40;99.90
73955;DHT22;62306;52.516;13.290;2023-07-28T13:30:40;23.40;99.90
73955;DHT22;62306;52.516;13.290;2023-07-28T13:33:07;23.50;99.90
73955;DHT22;62306;52.516;13.290;2023-07-28T13:35:34;23.70;99.90
73955;DHT22;62306;52.516;13.290;2023-07-28T13:38:02;23.70;99.90
73955;DHT22;62306;52.516;13.290;2023-07-28T13:40:29;23.60;99.90
73955;DHT22;62306;52.516;13.290;2023-07-28T13:42:56;23.60;99.90
73955;DHT22;62306;52.516;13.290;2023-07-28T13:45:22;23.50;99.90
73955;DHT22;62306;52.516;13.290;2023-07-28T13:47:49;23.40;99.90
73955;DHT22;62306;52.516;13.290;2023-07-28T13:50:16;23.30;99.90
73955;DHT22;62306;52.516;13.290;2023-07-28T13:52:43;23.40;99.90
73955;DHT22;62306;52.516;13.290;2023-07-28T13:55:11;23.50;99.90
73955;DHT22;62306;52.516;13.290;2023-07-28T13:57:38;23.40;99.90
73955;DHT22;62306;52.516;13.290;2023-07-28T14:00:06;23.50;99.90
73955;DHT22;62306;52.516;13.290;2023-07-28T14:02:34;23.40;99.90
73955;DHT22;62306;52.516;13.290;2023-07-28T14:05:01;23.40;99.90
73955;DHT22;62306;52.516;13.290;2023-07-28T14:07:29;23.60;99.90
73955;DHT22;62306;52.516;13.290;2023-07-28T14:09:56;23.70;99.90
73955;DHT22;62306;52.516;13.290;2023-07-28T14:12:24;23.80;99.90
73955;DHT22;62306;52.516;13.290;2023-07-28T14:14:51;23.80;99.90
73955;DHT22;62306;52.516;13.290;2023-07-28T14:17:17;24.00;99.90
73955;DHT22;62306;52.516;13.290;2023-07-28T14:19:44;24.40;99.90
73955;DHT22;62306;52.516;13.290;2023-07-28T14:22:11;24.70;99.90
73955;DHT22;62306;52.516;13.290;2023-07-28T14:24:38;24.90;99.90
73955;DHT22;62306;52.516;13.290;2023-07-28T14:27:05;24.90;99.90
73955;DHT22;62306;52.516;13.290;2023-07-28T14:29:34;24.80;99.90
73955;DHT22;62306;52.516;13.290;2023-07-28T14:32:00;24.50;99.90
73955;DHT22;62306;52.516;13.290;2023-07-28T14:34:27;24.40;99.90
73955;DHT22;62306;52.516;13.290;2023-07-28T14:36:54;24.10;99.90
73955;DHT22;62306;52.516;13.290;2023-07-28T14:39:21;23.80;99.90
73955;DHT22;62306;52.516;13.290;2023-07-28T14:41:47;23.80;99.90
73955;DHT22;62306;52.516;13.290;2023-07-28T14:44:14;23.80;99.90
73955;DHT22;62306;52.516;13.290;2023-07-28T14:46:43;24.00;99.90
73955;DHT22;62306;52.516;13.290;2023-07-28T14:49:11;24.10;99.90
73955;DHT22;62306;52.516;13.290;2023-07-28T14:51:38;24.20;99.90
73955;DHT22;62306;52.516;13.290;2023-07-28T14:54:05;24.30;99.90
73955;DHT22;62306;52.516;13.290;2023-07-28T14:56:32;24.30;99.90
73955;DHT22;62306;52.516;13.290;2023-07-28T14:58:59;24.50;99.90
73955;DHT22;62306;52.516;13.290;2023-07-28T15:01:28;24.60;99.90
73955;DHT22;62306;52.516;13.290;2023-07-28T15:03:56;24.60;99.90
73955;DHT22;62306;52.516;13.290;2023-07-28T15:06:24;24.50;99.90
73955;DHT22;62306;52.516;13.290;2023-07-28T15:08:51;24.40;99.90
73955;DHT22;62306;52.516;13.290;2023-07-28T15:11:18;24.20;99.90
73955;DHT22;62306;52.516;13.290;2023-07-28T15:13:45;24.00;99.90
73955;DHT22;62306;52.516;13.290;2023-07-28T15:16:11;23.80;99.90
73955;DHT22;62306;52.516;13.290;2023-07-28T15:18:39;23.90;99.90